createdAt,value
2023-06-07T00:02:29.693Z,68841.34
2023-06-07T00:05:00.722Z,68837.72
2023-06-07T00:07:28.200Z,68836.78
2023-06-07T00:09:55.704Z,68833.38
2023-06-07T00:12:23.155Z,68828.06
2023-06-07T00:14:51.002Z,68824.47
2023-06-07T00:17:18.379Z,68820.69
2023-06-07T00:19:45.827Z,68819.13
2023-06-07T00:22:14.156Z,68827.13
2023-06-07T00:24:41.792Z,68817.25
2023-06-07T00:27:09.293Z,68814.03
2023-06-07T00:29:37.779Z,68815.56
2023-06-07T00:32:06.158Z,68810.63
2023-06-07T00:34:33.675Z,68810.44
2023-06-07T00:37:01.183Z,68808.75
2023-06-07T00:39:29.752Z,68802.25
2023-06-07T00:41:57.681Z,68806.44
2023-06-07T00:44:25.161Z,68808.75
2023-06-07T00:46:54.842Z,68803.63
2023-06-07T00:49:24.097Z,68801.91
2023-06-07T00:51:52.189Z,68801.16
2023-06-07T00:54:21.034Z,68799.06
2023-06-07T00:56:51.762Z,68799.41
2023-06-07T00:59:21.242Z,68794.09
2023-06-07T01:01:53.746Z,68799.81
2023-06-07T01:04:22.402Z,68804.19
2023-06-07T01:06:50.641Z,68807.22
2023-06-07T01:09:18.914Z,68793.16
2023-06-07T01:11:51.060Z,68795.63
2023-06-07T01:14:20.804Z,68794.88
2023-06-07T01:16:52.019Z,68791.66
2023-06-07T01:19:24.032Z,68792.78
2023-06-07T01:21:56.237Z,68762.56
2023-06-07T01:24:23.750Z,68786.34
2023-06-07T01:26:58.382Z,68778.56
2023-06-07T01:29:31.452Z,68785.03
2023-06-07T01:32:01.612Z,68775.53
2023-06-07T01:34:29.952Z,68772.72
2023-06-07T01:36:57.910Z,68766.63
2023-06-07T01:39:26.290Z,68766.63
2023-06-07T01:41:54.060Z,68769.84
2023-06-07T01:44:21.686Z,68767.19
2023-06-07T01:46:49.225Z,68766.44
2023-06-07T01:49:22.639Z,68760.38
2023-06-07T01:51:51.212Z,68763.59
2023-06-07T01:54:20.973Z,68756.00
2023-06-07T01:56:52.637Z,68760.38
2023-06-07T01:59:20.106Z,68758.69
2023-06-07T02:02:07.668Z,68760.19
2023-06-07T02:04:42.252Z,68764.56
2023-06-07T02:07:17.478Z,68756.97
2023-06-07T02:09:49.051Z,68760.03
2023-06-07T02:12:17.023Z,68753.00
2023-06-07T02:14:47.296Z,68752.44
2023-06-07T02:17:14.757Z,68749.00
2023-06-07T02:19:44.484Z,68746.91
2023-06-07T02:22:14.866Z,68752.44
2023-06-07T02:24:42.504Z,68754.13
2023-06-07T02:27:12.867Z,68755.66
2023-06-07T02:29:42.808Z,68751.84
2023-06-07T02:32:10.336Z,68748.44
2023-06-07T02:34:38.040Z,68746.34
2023-06-07T02:37:05.868Z,68749.56
2023-06-07T02:39:33.728Z,68746.91
2023-06-07T02:42:01.442Z,68750.53
2023-06-07T02:44:29.456Z,68749.41
2023-06-07T02:46:58.830Z,68744.44
2023-06-07T02:49:26.977Z,68749.41
2023-06-07T02:51:56.139Z,68750.13
2023-06-07T02:54:23.882Z,68741.63
2023-06-07T02:56:51.422Z,68740.09
2023-06-07T02:59:19.427Z,68745.59
2023-06-07T03:01:47.623Z,68738.19
2023-06-07T03:04:19.881Z,68739.75
2023-06-07T03:06:53.456Z,68736.09
2023-06-07T03:09:36.318Z,68735.53
2023-06-07T03:12:04.255Z,68739.75
2023-06-07T03:14:39.478Z,68738.75
2023-06-07T03:17:10.092Z,68739.16
2023-06-07T03:19:39.126Z,68738.19
2023-06-07T03:22:07.754Z,68738.75
2023-06-07T03:24:40.386Z,68739.91
2023-06-07T03:27:09.841Z,68746.16
2023-06-07T03:29:39.432Z,68745.59
2023-06-07T03:32:08.537Z,68746.16
2023-06-07T03:34:42.948Z,68747.31
2023-06-07T03:37:11.250Z,68753.38
2023-06-07T03:39:39.167Z,68751.84
2023-06-07T03:42:09.264Z,68756.41
2023-06-07T03:44:39.451Z,68755.44
2023-06-07T03:47:07.140Z,68734.16
2023-06-07T03:49:34.679Z,68760.94
2023-06-07T03:52:04.073Z,68757.72
2023-06-07T03:54:32.865Z,68757.13
2023-06-07T03:57:07.093Z,68757.13
2023-06-07T03:59:37.926Z,68757.34
2023-06-07T04:02:06.650Z,68764.53
2023-06-07T04:04:35.003Z,68765.09
2023-06-07T04:07:04.214Z,68782.38
2023-06-07T04:09:31.789Z,68793.91
2023-06-07T04:11:59.982Z,68798.09
2023-06-07T04:14:28.884Z,68801.50
2023-06-07T04:16:56.988Z,68807.59
2023-06-07T04:19:25.342Z,68809.31
2023-06-07T04:21:54.800Z,68812.72
2023-06-07T04:24:24.321Z,68818.78
2023-06-07T04:26:54.526Z,68826.94
2023-06-07T04:29:27.131Z,68834.50
2023-06-07T04:31:58.405Z,68845.88
2023-06-07T04:34:30.666Z,68842.75
2023-06-07T04:36:58.803Z,68877.56
2023-06-07T04:39:27.223Z,68886.66
2023-06-07T04:41:55.729Z,68892.53
2023-06-07T04:44:31.505Z,68907.88
2023-06-07T04:47:10.102Z,68918.72
2023-06-07T04:49:40.600Z,68937.91
2023-06-07T04:52:08.398Z,68953.66
2023-06-07T04:54:38.149Z,68958.41
2023-06-07T04:57:10.599Z,68980.03
2023-06-07T04:59:44.300Z,68999.94
2023-06-07T05:02:18.059Z,69018.34
2023-06-07T05:04:47.467Z,69025.00
2023-06-07T05:07:16.838Z,68990.72
2023-06-07T05:09:50.321Z,68996.72
2023-06-07T05:12:20.227Z,68984.56
2023-06-07T05:14:47.762Z,68970.91
2023-06-07T05:17:20.644Z,68967.50
2023-06-07T05:19:51.330Z,68961.22
2023-06-07T05:22:18.925Z,68958.97
2023-06-07T05:24:47.043Z,68961.22
2023-06-07T05:27:15.777Z,68961.78
2023-06-07T05:29:43.447Z,68958.00
2023-06-07T05:32:11.128Z,68966.38
2023-06-07T05:34:39.611Z,68969.75
2023-06-07T05:37:08.217Z,68968.81
2023-06-07T05:39:36.274Z,68976.78
2023-06-07T05:42:03.840Z,68980.75
2023-06-07T05:44:31.439Z,68995.41
2023-06-07T05:46:59.129Z,68975.34
2023-06-07T05:49:27.053Z,69004.09
2023-06-07T05:51:54.494Z,69013.06
2023-06-07T05:54:22.418Z,69018.75
2023-06-07T05:56:50.972Z,69028.44
2023-06-07T05:59:19.525Z,69029.00
2023-06-07T06:01:47.657Z,69039.44
2023-06-07T06:04:16.692Z,69045.91
2023-06-07T06:06:44.199Z,69059.03
2023-06-07T06:09:11.872Z,69061.50
2023-06-07T06:11:39.425Z,69072.88
2023-06-07T06:14:06.876Z,69057.91
2023-06-07T06:16:34.568Z,69093.38
2023-06-07T06:19:02.107Z,69092.97
2023-06-07T06:21:29.886Z,69094.13
2023-06-07T06:23:57.263Z,69078.44
2023-06-07T06:26:26.543Z,69106.31
2023-06-07T06:28:54.137Z,69112.91
2023-06-07T06:31:21.830Z,69129.28
2023-06-07T06:33:51.978Z,69135.16
2023-06-07T06:36:21.840Z,69157.22
2023-06-07T06:38:49.509Z,69161.97
2023-06-07T06:41:17.636Z,69173.34
2023-06-07T06:43:45.716Z,69189.91
2023-06-07T06:46:17.330Z,69221.09
2023-06-07T06:48:55.804Z,69216.94
2023-06-07T06:51:30.707Z,69237.22
2023-06-07T06:53:58.327Z,69268.44
2023-06-07T06:56:25.757Z,69264.25
2023-06-07T06:58:53.590Z,69283.44
2023-06-07T07:01:21.104Z,69286.69
2023-06-07T07:03:48.898Z,69273.56
2023-06-07T07:06:18.065Z,69224.34
2023-06-07T07:08:46.030Z,69200.16
2023-06-07T07:11:13.652Z,69173.19
2023-06-07T07:13:41.059Z,69152.63
2023-06-07T07:16:08.615Z,69148.66
2023-06-07T07:18:36.172Z,69123.44
2023-06-07T07:21:04.335Z,69150.53
2023-06-07T07:23:32.139Z,69157.22
2023-06-07T07:26:01.557Z,69166.34
2023-06-07T07:28:29.315Z,69169.38
2023-06-07T07:30:56.937Z,69180.75
2023-06-07T07:33:24.911Z,69170.19
2023-06-07T07:35:52.433Z,69214.81
2023-06-07T07:38:19.880Z,69238.19
2023-06-07T07:40:48.489Z,69259.47
2023-06-07T07:43:16.497Z,69270.53
2023-06-07T07:45:44.113Z,69304.38
2023-06-07T07:48:11.840Z,69325.66
2023-06-07T07:50:41.565Z,69347.34
2023-06-07T07:53:09.070Z,69334.78
2023-06-07T07:55:36.899Z,69318.06
2023-06-07T07:58:04.346Z,69304.56
2023-06-07T08:00:31.760Z,69299.66
2023-06-07T08:02:59.471Z,69300.56
2023-06-07T08:05:28.242Z,69298.84
2023-06-07T08:07:56.168Z,69315.38
2023-06-07T08:10:23.738Z,69328.91
2023-06-07T08:12:51.257Z,69342.19
2023-06-07T08:15:18.912Z,69325.31
2023-06-07T08:17:46.500Z,69352.88
2023-06-07T08:20:14.053Z,69354.75
2023-06-07T08:22:43.315Z,69359.31
2023-06-07T08:25:10.834Z,69361.25
2023-06-07T08:27:39.262Z,69396.28
2023-06-07T08:30:07.858Z,69377.25
2023-06-07T08:32:37.701Z,69389.03
2023-06-07T08:35:05.940Z,69421.19
2023-06-07T08:37:33.758Z,69448.41
2023-06-07T08:40:01.105Z,69467.84
2023-06-07T08:42:28.714Z,69477.94
2023-06-07T08:44:56.263Z,69484.97
2023-06-07T08:47:26.567Z,69460.59
2023-06-07T08:49:58.257Z,69472.97
2023-06-07T08:52:26.607Z,69486.84
2023-06-07T08:54:59.729Z,69547.44
2023-06-07T08:57:32.743Z,69602.69
2023-06-07T09:00:01.776Z,69605.13
2023-06-07T09:02:29.828Z,69613.38
2023-06-07T09:04:57.493Z,69616.25
2023-06-07T09:07:25.026Z,69623.25
2023-06-07T09:09:52.503Z,69641.38
2023-06-07T09:12:20.199Z,69638.31
2023-06-07T09:14:48.430Z,69675.88
2023-06-07T09:17:16.280Z,69656.59
2023-06-07T09:19:44.060Z,69659.47
2023-06-07T09:22:31.699Z,69693.03
2023-06-07T09:25:09.398Z,69673.59
2023-06-07T09:27:36.962Z,69683.31
2023-06-07T09:30:07.033Z,69688.63
2023-06-07T09:32:38.909Z,69720.66
2023-06-07T09:35:14.606Z,69765.81
2023-06-07T09:37:54.117Z,69778.44
2023-06-07T09:40:23.117Z,69799.63
2023-06-07T09:43:00.775Z,69811.91
2023-06-07T09:45:29.472Z,69827.66
2023-06-07T09:48:05.758Z,69869.88
2023-06-07T09:50:33.538Z,69827.94
2023-06-07T09:53:04.571Z,69818.94
2023-06-07T09:55:32.778Z,69775.44
2023-06-07T09:58:00.319Z,69735.53
2023-06-07T10:00:29.062Z,69778.72
2023-06-07T10:03:07.353Z,69826.97
2023-06-07T10:05:35.671Z,69849.84
2023-06-07T10:08:03.673Z,69863.72
2023-06-07T10:10:32.318Z,69845.94
2023-06-07T10:13:03.565Z,69885.19
2023-06-07T10:15:37.031Z,69899.66
2023-06-07T10:18:25.566Z,69860.28
2023-06-07T10:21:04.800Z,69876.28
2023-06-07T10:23:58.901Z,69927.16
2023-06-07T10:26:35.659Z,69878.56
2023-06-07T10:29:12.804Z,69907.69
2023-06-07T10:31:49.809Z,69895.22
2023-06-07T10:34:19.695Z,69892.91
2023-06-07T10:36:47.566Z,69852.81
2023-06-07T10:39:15.810Z,69772.13
2023-06-07T10:41:44.140Z,69767.97
2023-06-07T10:44:13.973Z,69778.84
2023-06-07T10:46:41.688Z,69789.16
2023-06-07T10:49:29.013Z,69834.22
2023-06-07T10:52:00.703Z,69906.38
2023-06-07T10:54:32.942Z,69950.63
2023-06-07T10:57:01.409Z,69951.88
2023-06-07T10:59:29.636Z,69947.19
2023-06-07T11:02:50.384Z,69861.88
2023-06-07T11:06:00.407Z,69821.22
2023-06-07T11:08:37.994Z,69757.25
2023-06-07T11:11:06.525Z,69732.75
2023-06-07T11:13:40.058Z,69706.19
2023-06-07T11:16:30.945Z,69691.16
2023-06-07T11:19:09.342Z,69662.91
2023-06-07T11:22:17.394Z,69693.03
2023-06-07T11:24:49.605Z,69676.47
2023-06-07T11:27:20.475Z,69685.44
2023-06-07T11:29:48.366Z,69665.75
2023-06-07T11:32:17.132Z,69705.88
2023-06-07T11:34:57.163Z,69678.34
2023-06-07T11:37:25.709Z,69714.19
2023-06-07T11:39:59.899Z,69686.91
2023-06-07T11:42:27.309Z,69682.75
2023-06-07T11:44:54.861Z,69682.56
2023-06-07T11:47:22.459Z,69680.84
2023-06-07T11:49:49.950Z,69673.03
2023-06-07T11:52:19.814Z,69660.44
2023-06-07T11:54:47.401Z,69632.59
2023-06-07T11:57:14.998Z,69646.69
2023-06-07T11:59:44.137Z,69642.13
2023-06-07T12:02:13.334Z,69623.41
2023-06-07T12:04:43.765Z,69630.88
2023-06-07T12:07:21.385Z,69642.88
2023-06-07T12:09:50.635Z,69673.59
2023-06-07T12:12:18.118Z,69665.19
2023-06-07T12:14:48.314Z,69696.72
2023-06-07T12:17:15.893Z,69711.34
2023-06-07T12:19:43.875Z,69726.63
2023-06-07T12:22:11.520Z,69722.38
2023-06-07T12:24:39.493Z,69713.19
2023-06-07T12:27:07.624Z,69742.66
2023-06-07T12:29:35.290Z,69747.06
2023-06-07T12:32:03.324Z,69736.91
2023-06-07T12:34:34.293Z,69734.22
2023-06-07T12:37:02.827Z,69734.78
2023-06-07T12:39:30.835Z,69740.38
2023-06-07T12:41:58.630Z,69713.19
2023-06-07T12:44:26.239Z,69737.25
2023-06-07T12:46:53.812Z,69763.53
2023-06-07T12:49:21.196Z,69810.75
2023-06-07T12:51:49.106Z,69838.25
2023-06-07T12:54:16.792Z,69838.81
2023-06-07T12:56:44.268Z,69841.25
2023-06-07T12:59:11.535Z,69841.38
2023-06-07T13:01:39.917Z,69844.81
2023-06-07T13:04:07.535Z,69861.41
2023-06-07T13:06:35.377Z,69858.56
2023-06-07T13:09:10.337Z,69859.56
2023-06-07T13:11:41.247Z,69819.63
2023-06-07T13:14:09.274Z,69808.75
2023-06-07T13:16:36.974Z,69795.00
2023-06-07T13:19:04.964Z,69779.00
2023-06-07T13:21:32.990Z,69803.63
2023-06-07T13:24:00.558Z,69830.97
2023-06-07T13:26:27.969Z,69820.06
2023-06-07T13:28:55.583Z,69796.72
2023-06-07T13:31:23.224Z,69777.28
2023-06-07T13:33:50.825Z,69794.31
2023-06-07T13:36:18.295Z,69770.28
2023-06-07T13:38:46.016Z,69762.09
2023-06-07T13:41:13.570Z,69713.78
2023-06-07T13:46:16.754Z,69755.81
2023-06-07T13:48:44.228Z,69738.25
2023-06-07T13:51:13.645Z,69751.50
2023-06-07T13:53:42.678Z,69739.97
2023-06-07T13:56:11.242Z,69722.94
2023-06-07T13:58:39.211Z,69752.94
2023-06-07T14:01:07.010Z,69732.66
2023-06-07T14:03:36.120Z,69746.09
2023-06-07T14:06:04.164Z,69701.19
2023-06-07T14:08:32.425Z,69718.78
2023-06-07T14:11:01.624Z,69701.47
2023-06-07T14:13:29.775Z,69690.75
2023-06-07T14:15:57.553Z,69679.88
2023-06-07T14:18:26.929Z,69657.19
2023-06-07T14:20:54.489Z,69687.72
2023-06-07T14:23:22.112Z,69671.31
2023-06-07T14:25:49.562Z,69668.84
2023-06-07T14:28:19.220Z,69667.88
2023-06-07T14:30:47.928Z,69652.44
2023-06-07T14:33:15.547Z,69609.13
2023-06-07T14:35:42.937Z,69626.53
2023-06-07T14:38:10.641Z,69617.94
2023-06-07T14:40:38.249Z,69613.53
2023-06-07T14:43:05.710Z,69615.09
2023-06-07T14:45:33.355Z,69622.69
2023-06-07T14:48:02.161Z,69622.38
2023-06-07T14:50:31.919Z,69597.13
2023-06-07T14:53:03.078Z,69631.84
2023-06-07T14:55:30.565Z,69636.25
2023-06-07T14:58:01.615Z,69635.84
2023-06-07T15:00:32.632Z,69639.09
2023-06-07T15:03:00.464Z,69628.09
2023-06-07T15:05:28.501Z,69618.69
2023-06-07T15:07:57.113Z,69598.28
2023-06-07T15:10:24.689Z,69617.94
2023-06-07T15:12:52.517Z,69586.84
2023-06-07T15:15:20.059Z,69607.81
2023-06-07T15:17:49.425Z,69591.25
2023-06-07T15:20:19.063Z,69588.97
2023-06-07T15:22:46.434Z,69569.72
2023-06-07T15:25:14.375Z,69572.81
2023-06-07T15:27:41.854Z,69560.56
2023-06-07T15:30:09.596Z,69553.34
2023-06-07T15:32:54.563Z,69543.06
2023-06-07T15:35:22.390Z,69536.63
2023-06-07T15:37:50.226Z,69530.34
2023-06-07T15:40:18.268Z,69522.69
2023-06-07T15:42:45.763Z,69518.50
2023-06-07T15:45:13.233Z,69520.78
2023-06-07T15:47:41.007Z,69517.38
2023-06-07T15:50:09.053Z,69512.97
2023-06-07T15:52:36.542Z,69500.78
2023-06-07T15:55:05.596Z,69494.91
2023-06-07T15:57:33.093Z,69462.31
2023-06-07T16:00:00.596Z,69485.53
2023-06-07T16:02:29.046Z,69474.31
2023-06-07T16:04:56.839Z,69497.19
2023-06-07T16:07:41.673Z,69488.97
2023-06-07T16:10:15.766Z,69490.69
2023-06-07T16:12:44.034Z,69456.59
2023-06-07T16:15:11.902Z,69466.69
2023-06-07T16:17:39.523Z,69442.09
2023-06-07T16:20:07.525Z,69443.91
2023-06-07T16:22:36.035Z,69433.97
2023-06-07T16:25:03.668Z,69422.13
2023-06-07T16:27:33.306Z,69425.97
2023-06-07T16:30:01.152Z,69428.25
2023-06-07T16:32:39.182Z,69420.81
2023-06-07T16:35:07.801Z,69393.22
2023-06-07T16:37:35.346Z,69417.97
2023-06-07T16:40:02.862Z,69412.84
2023-06-07T16:42:30.927Z,69407.31
2023-06-07T16:44:58.714Z,69397.97
2023-06-07T16:47:27.875Z,69391.69
2023-06-07T16:49:56.006Z,69393.59
2023-06-07T16:52:23.726Z,69393.41
2023-06-07T16:54:51.243Z,69391.69
2023-06-07T16:57:18.731Z,69368.13
2023-06-07T16:59:46.311Z,69385.59
2023-06-07T17:02:15.124Z,69381.44
2023-06-07T17:04:42.860Z,69380.88
2023-06-07T17:07:10.419Z,69374.19
2023-06-07T17:09:37.972Z,69382.97
2023-06-07T17:12:06.923Z,69381.84
2023-06-07T17:14:34.578Z,69375.16
2023-06-07T17:17:10.582Z,69368.47
2023-06-07T17:19:38.463Z,69356.88
2023-06-07T17:22:07.294Z,69351.91
2023-06-07T17:24:34.813Z,69339.91
2023-06-07T17:27:02.382Z,69342.59
2023-06-07T17:29:30.655Z,69339.91
2023-06-07T17:31:58.377Z,69343.75
2023-06-07T17:34:25.932Z,69338.78
2023-06-07T17:36:53.792Z,69343.75
2023-06-07T17:39:22.843Z,69336.34
2023-06-07T17:41:50.560Z,69331.94
2023-06-07T17:44:18.796Z,69337.47
2023-06-07T17:46:47.297Z,69336.34
2023-06-07T17:49:15.621Z,69334.06
2023-06-07T17:51:43.337Z,69333.09
2023-06-07T17:54:10.961Z,69334.06
2023-06-07T17:56:38.856Z,69327.19
2023-06-07T17:59:06.235Z,69318.66
2023-06-07T18:01:33.804Z,69310.66
2023-06-07T18:04:06.970Z,69275.09
2023-06-07T18:06:34.643Z,69290.69
2023-06-07T18:09:02.203Z,69285.31
2023-06-07T18:11:29.654Z,69290.50
2023-06-07T18:13:57.124Z,69282.69
2023-06-07T18:16:24.588Z,69277.00
2023-06-07T18:18:52.172Z,69273.00
2023-06-07T18:21:19.805Z,69275.69
2023-06-07T18:23:47.526Z,69262.31
2023-06-07T18:26:16.484Z,69264.81
2023-06-07T18:28:46.771Z,69260.84
2023-06-07T18:31:14.310Z,69251.88
2023-06-07T18:33:41.840Z,69249.03
2023-06-07T18:36:09.317Z,69247.31
2023-06-07T18:38:39.630Z,69245.19
2023-06-07T18:41:07.177Z,69242.16
2023-06-07T18:43:34.746Z,69235.50
2023-06-07T18:46:02.457Z,69225.81
2023-06-07T18:48:30.276Z,69217.81
2023-06-07T18:50:57.744Z,69206.66
2023-06-07T18:53:25.255Z,69198.69
2023-06-07T18:55:52.698Z,69193.88
2023-06-07T18:58:20.302Z,69192.00
2023-06-07T19:00:49.766Z,69178.16
2023-06-07T19:03:17.600Z,69142.25
2023-06-07T19:05:45.101Z,69167.69
2023-06-07T19:08:12.574Z,69155.91
2023-06-07T19:10:40.049Z,69149.78
2023-06-07T19:13:07.663Z,69139.53
2023-06-07T19:15:35.245Z,69137.28
2023-06-07T19:18:05.848Z,69118.88
2023-06-07T19:20:35.210Z,69130.78
2023-06-07T19:23:02.874Z,69125.88
2023-06-07T19:25:30.525Z,69124.31
2023-06-07T19:27:58.051Z,69121.47
2023-06-07T19:30:26.208Z,69113.91
2023-06-07T19:32:55.543Z,69116.75
2023-06-07T19:35:24.601Z,69110.47
2023-06-07T19:37:52.374Z,69111.03
2023-06-07T19:40:20.951Z,69107.81
2023-06-07T19:42:48.238Z,69108.41
2023-06-07T19:45:16.073Z,69086.88
2023-06-07T19:47:44.111Z,69098.34
2023-06-07T19:50:11.853Z,69083.69
2023-06-07T19:52:41.547Z,69083.69
2023-06-07T19:55:09.631Z,69092.97
2023-06-07T19:57:37.195Z,69099.09
2023-06-07T20:00:05.564Z,69064.78
2023-06-07T20:02:40.764Z,69079.88
2023-06-07T20:05:08.695Z,69084.09
2023-06-07T20:07:36.441Z,69084.25
2023-06-07T20:10:06.371Z,69083.53
2023-06-07T20:12:34.416Z,69082.72
2023-06-07T20:15:01.794Z,69086.72
2023-06-07T20:17:29.590Z,69095.09
2023-06-07T20:20:00.915Z,69097.78
2023-06-07T20:22:33.082Z,69091.84
2023-06-07T20:25:03.302Z,69093.94
2023-06-07T20:27:31.525Z,69095.25
2023-06-07T20:29:59.642Z,69091.66
2023-06-07T20:32:27.767Z,69085.97
2023-06-07T20:34:56.255Z,69078.19
2023-06-07T20:37:23.825Z,69086.94
2023-06-07T20:39:51.323Z,69086.38
2023-06-07T20:42:18.890Z,69083.69
2023-06-07T20:44:53.364Z,69081.59
2023-06-07T20:47:22.171Z,69075.16
2023-06-07T20:49:49.921Z,69068.50
2023-06-07T20:52:17.358Z,69067.91
2023-06-07T20:54:44.859Z,69068.31
2023-06-07T20:57:12.399Z,69073.44
2023-06-07T20:59:47.092Z,69059.94
2023-06-07T21:02:14.530Z,69060.34
2023-06-07T21:04:42.213Z,69057.31
2023-06-07T21:07:09.807Z,69043.97
2023-06-07T21:09:37.352Z,69052.19
2023-06-07T21:12:05.196Z,69058.06
2023-06-07T21:14:32.551Z,69058.63
2023-06-07T21:17:00.156Z,69033.44
2023-06-07T21:19:27.679Z,69047.41
2023-06-07T21:21:55.129Z,69049.50
2023-06-07T21:24:22.483Z,69047.59
2023-06-07T21:26:49.930Z,69045.34
2023-06-07T21:29:17.293Z,69043.81
2023-06-07T21:31:45.036Z,69036.41
2023-06-07T21:34:13.744Z,69035.81
2023-06-07T21:36:41.307Z,69032.97
2023-06-07T21:39:08.883Z,69044.38
2023-06-07T21:41:36.400Z,69032.22
2023-06-07T21:44:03.925Z,69029.75
2023-06-07T21:46:31.398Z,69026.13
2023-06-07T21:48:58.870Z,69025.00
2023-06-07T21:51:26.816Z,69018.91
2023-06-07T21:53:54.451Z,69021.97
2023-06-07T21:56:21.903Z,69017.59
2023-06-07T21:58:49.403Z,69018.16
2023-06-07T22:01:16.877Z,69016.06
2023-06-07T22:03:44.586Z,69030.88
2023-06-07T22:06:12.912Z,69041.00
2023-06-07T22:08:40.631Z,69036.97
2023-06-07T22:11:08.178Z,69030.13
2023-06-07T22:13:38.254Z,69015.31
2023-06-07T22:16:06.254Z,69015.88
2023-06-07T22:18:36.658Z,69017.59
2023-06-07T22:21:04.981Z,69012.66
2023-06-07T22:23:32.654Z,68989.56
2023-06-07T22:26:03.155Z,69021.97
2023-06-07T22:28:31.032Z,69020.44
2023-06-07T22:30:59.233Z,69027.28
2023-06-07T22:33:26.692Z,69026.31
2023-06-07T22:35:58.461Z,69024.44
2023-06-07T22:38:26.323Z,69015.09
2023-06-07T22:40:53.745Z,69008.09
2023-06-07T22:43:21.799Z,69007.75
2023-06-07T22:45:50.083Z,69007.75
2023-06-07T22:48:20.103Z,69005.81
2023-06-07T22:50:48.745Z,69016.69
2023-06-07T22:53:16.494Z,69006.78
2023-06-07T22:55:46.408Z,69004.50
2023-06-07T22:58:13.916Z,68998.81
2023-06-07T23:00:41.376Z,68973.66
2023-06-07T23:03:09.913Z,68998.25
2023-06-07T23:05:38.918Z,68998.81
2023-06-07T23:08:08.334Z,68995.41
2023-06-07T23:10:37.626Z,68989.88
2023-06-07T23:13:10.954Z,68961.09
2023-06-07T23:15:42.840Z,68983.81
2023-06-07T23:18:12.256Z,68981.56
2023-06-07T23:20:42.556Z,68970.91
2023-06-07T23:23:13.426Z,68974.91
2023-06-07T23:25:41.037Z,68977.41
2023-06-07T23:28:08.908Z,68971.66
2023-06-07T23:30:37.755Z,68954.84
2023-06-07T23:33:07.011Z,68974.09
2023-06-07T23:35:35.327Z,68979.44
2023-06-07T23:38:02.807Z,68985.13
2023-06-07T23:40:30.551Z,68967.38
2023-06-07T23:43:01.944Z,68968.50
2023-06-07T23:45:32.504Z,68988.41
2023-06-07T23:48:01.232Z,68981.16
2023-06-07T23:50:29.224Z,68979.44
2023-06-07T23:53:01.753Z,68980.38
2023-06-07T23:55:29.529Z,68989.53
2023-06-07T23:57:56.972Z,68961.69
